sensor_id;sensor_type;location;lat;lon;timestamp;temperature;humidity
38237;DHT22;50101;49.438;11.098;2023-04-12T00:00:50;19.60;51.90
38237;DHT22;50101;49.438;11.098;2023-04-12T00:03:18;19.60;51.90
38237;DHT22;50101;49.438;11.098;2023-04-12T00:05:47;19.60;51.90
38237;DHT22;50101;49.438;11.098;2023-04-12T00:08:14;19.60;52.00
38237;DHT22;50101;49.438;11.098;2023-04-12T00:10:43;19.60;52.00
38237;DHT22;50101;49.438;11.098;2023-04-12T00:13:10;19.60;51.90
38237;DHT22;50101;49.438;11.098;2023-04-12T00:15:36;19.60;51.40
38237;DHT22;50101;49.438;11.098;2023-04-12T00:18:03;19.70;52.00
38237;DHT22;50101;49.438;11.098;2023-04-12T00:20:30;19.60;51.80
38237;DHT22;50101;49.438;11.098;2023-04-12T00:22:56;19.60;51.90
38237;DHT22;50101;49.438;11.098;2023-04-12T00:25:23;19.60;51.90
38237;DHT22;50101;49.438;11.098;2023-04-12T00:27:50;19.60;51.90
38237;DHT22;50101;49.438;11.098;2023-04-12T00:30:17;19.50;51.80
38237;DHT22;50101;49.438;11.098;2023-04-12T00:32:43;19.60;51.80
38237;DHT22;50101;49.438;11.098;2023-04-12T00:35:10;19.60;51.30
38237;DHT22;50101;49.438;11.098;2023-04-12T00:37:37;19.50;52.30
38237;DHT22;50101;49.438;11.098;2023-04-12T00:40:05;19.60;51.80
38237;DHT22;50101;49.438;11.098;2023-04-12T00:42:37;19.60;51.80
38237;DHT22;50101;49.438;11.098;2023-04-12T00:45:05;19.60;51.80
38237;DHT22;50101;49.438;11.098;2023-04-12T00:47:34;19.50;51.30
38237;DHT22;50101;49.438;11.098;2023-04-12T00:50:03;19.60;51.90
38237;DHT22;50101;49.438;11.098;2023-04-12T00:52:32;19.60;51.80
38237;DHT22;50101;49.438;11.098;2023-04-12T00:55:03;19.60;51.90
38237;DHT22;50101;49.438;11.098;2023-04-12T00:57:34;19.60;51.90
38237;DHT22;50101;49.438;11.098;2023-04-12T01:00:06;19.60;51.90
38237;DHT22;50101;49.438;11.098;2023-04-12T01:02:43;19.50;51.80
38237;DHT22;50101;49.438;11.098;2023-04-12T01:05:17;19.50;51.80
38237;DHT22;50101;49.438;11.098;2023-04-12T01:10:34;19.60;51.90
38237;DHT22;50101;49.438;11.098;2023-04-12T01:16:15;19.50;51.80
38237;DHT22;50101;49.438;11.098;2023-04-12T01:18:45;19.50;51.80
38237;DHT22;50101;49.438;11.098;2023-04-12T01:21:34;19.50;51.80
38237;DHT22;50101;49.438;11.098;2023-04-12T01:24:22;19.50;51.80
38237;DHT22;50101;49.438;11.098;2023-04-12T01:26:54;19.50;51.80
38237;DHT22;50101;49.438;11.098;2023-04-12T01:29:23;19.50;51.80
38237;DHT22;50101;49.438;11.098;2023-04-12T01:31:53;19.50;51.80
38237;DHT22;50101;49.438;11.098;2023-04-12T01:34:25;19.50;51.90
38237;DHT22;50101;49.438;11.098;2023-04-12T01:36:54;19.50;51.80
38237;DHT22;50101;49.438;11.098;2023-04-12T01:39:22;19.50;51.80
38237;DHT22;50101;49.438;11.098;2023-04-12T01:41:49;19.50;51.70
38237;DHT22;50101;49.438;11.098;2023-04-12T01:44:16;19.50;51.80
38237;DHT22;50101;49.438;11.098;2023-04-12T01:46:44;19.50;51.80
38237;DHT22;50101;49.438;11.098;2023-04-12T01:49:14;19.50;51.80
38237;DHT22;50101;49.438;11.098;2023-04-12T01:52:07;19.50;51.80
38237;DHT22;50101;49.438;11.098;2023-04-12T01:54:37;19.40;51.70
38237;DHT22;50101;49.438;11.098;2023-04-12T01:57:05;19.40;51.80
38237;DHT22;50101;49.438;11.098;2023-04-12T01:59:42;19.40;51.80
38237;DHT22;50101;49.438;11.098;2023-04-12T02:02:12;19.40;51.80
38237;DHT22;50101;49.438;11.098;2023-04-12T02:04:41;19.40;51.80
38237;DHT22;50101;49.438;11.098;2023-04-12T02:07:08;19.40;51.70
38237;DHT22;50101;49.438;11.098;2023-04-12T02:09:36;19.40;51.80
38237;DHT22;50101;49.438;11.098;2023-04-12T02:12:04;19.40;51.70
38237;DHT22;50101;49.438;11.098;2023-04-12T02:14:32;19.40;51.70
38237;DHT22;50101;49.438;11.098;2023-04-12T02:16:58;19.40;51.80
38237;DHT22;50101;49.438;11.098;2023-04-12T02:19:27;19.40;51.70
38237;DHT22;50101;49.438;11.098;2023-04-12T02:21:54;19.40;51.70
38237;DHT22;50101;49.438;11.098;2023-04-12T02:24:21;19.40;51.70
38237;DHT22;50101;49.438;11.098;2023-04-12T02:26:48;19.40;51.20
38237;DHT22;50101;49.438;11.098;2023-04-12T02:29:17;19.40;51.80
38237;DHT22;50101;49.438;11.098;2023-04-12T02:31:44;19.40;51.70
38237;DHT22;50101;49.438;11.098;2023-04-12T02:34:11;19.40;51.70
38237;DHT22;50101;49.438;11.098;2023-04-12T02:36:38;19.40;51.80
38237;DHT22;50101;49.438;11.098;2023-04-12T02:39:05;19.40;51.70
38237;DHT22;50101;49.438;11.098;2023-04-12T02:41:33;19.40;51.70
38237;DHT22;50101;49.438;11.098;2023-04-12T02:43:59;19.40;51.70
38237;DHT22;50101;49.438;11.098;2023-04-12T02:46:26;19.40;51.60
38237;DHT22;50101;49.438;11.098;2023-04-12T02:48:54;19.40;51.80
38237;DHT22;50101;49.438;11.098;2023-04-12T02:51:21;19.40;51.80
38237;DHT22;50101;49.438;11.098;2023-04-12T02:53:47;19.40;51.70
38237;DHT22;50101;49.438;11.098;2023-04-12T02:56:14;19.40;51.20
38237;DHT22;50101;49.438;11.098;2023-04-12T02:58:44;19.40;51.70
38237;DHT22;50101;49.438;11.098;2023-04-12T03:01:11;19.40;51.70
38237;DHT22;50101;49.438;11.098;2023-04-12T03:03:38;19.40;51.70
38237;DHT22;50101;49.438;11.098;2023-04-12T03:06:05;19.40;51.80
38237;DHT22;50101;49.438;11.098;2023-04-12T03:08:34;19.40;51.60
38237;DHT22;50101;49.438;11.098;2023-04-12T03:11:01;19.40;51.60
38237;DHT22;50101;49.438;11.098;2023-04-12T03:13:28;19.40;51.60
38237;DHT22;50101;49.438;11.098;2023-04-12T03:15:58;19.40;51.60
38237;DHT22;50101;49.438;11.098;2023-04-12T03:18:25;19.40;51.60
38237;DHT22;50101;49.438;11.098;2023-04-12T03:20:52;19.40;51.70
38237;DHT22;50101;49.438;11.098;2023-04-12T03:23:19;19.40;51.70
38237;DHT22;50101;49.438;11.098;2023-04-12T03:25:46;19.50;51.60
38237;DHT22;50101;49.438;11.098;2023-04-12T03:28:12;19.50;51.50
38237;DHT22;50101;49.438;11.098;2023-04-12T03:30:39;19.40;51.50
38237;DHT22;50101;49.438;11.098;2023-04-12T03:33:06;19.40;51.50
38237;DHT22;50101;49.438;11.098;2023-04-12T03:35:33;19.50;52.00
38237;DHT22;50101;49.438;11.098;2023-04-12T03:38:00;20.10;51.90
38237;DHT22;50101;49.438;11.098;2023-04-12T03:40:26;19.50;51.20
38237;DHT22;50101;49.438;11.098;2023-04-12T03:42:53;19.50;51.20
38237;DHT22;50101;49.438;11.098;2023-04-12T03:45:20;19.60;51.20
38237;DHT22;50101;49.438;11.098;2023-04-12T03:47:46;19.50;51.00
38237;DHT22;50101;49.438;11.098;2023-04-12T03:50:13;19.50;51.00
38237;DHT22;50101;49.438;11.098;2023-04-12T03:52:40;19.50;50.90
38237;DHT22;50101;49.438;11.098;2023-04-12T03:55:07;19.50;51.00
38237;DHT22;50101;49.438;11.098;2023-04-12T03:57:34;19.50;51.00
38237;DHT22;50101;49.438;11.098;2023-04-12T04:00:01;19.50;51.00
38237;DHT22;50101;49.438;11.098;2023-04-12T04:02:29;19.50;51.00
38237;DHT22;50101;49.438;11.098;2023-04-12T04:04:57;19.40;51.10
38237;DHT22;50101;49.438;11.098;2023-04-12T04:07:24;19.40;51.90
38237;DHT22;50101;49.438;11.098;2023-04-12T04:09:53;19.40;51.90
38237;DHT22;50101;49.438;11.098;2023-04-12T04:12:20;19.40;51.40
38237;DHT22;50101;49.438;11.098;2023-04-12T04:14:46;19.40;51.40
38237;DHT22;50101;49.438;11.098;2023-04-12T04:17:13;19.30;51.40
38237;DHT22;50101;49.438;11.098;2023-04-12T04:19:40;19.30;51.50
38237;DHT22;50101;49.438;11.098;2023-04-12T04:22:07;19.30;51.50
38237;DHT22;50101;49.438;11.098;2023-04-12T04:24:35;19.30;51.50
38237;DHT22;50101;49.438;11.098;2023-04-12T04:27:04;19.30;51.50
38237;DHT22;50101;49.438;11.098;2023-04-12T04:29:31;19.30;51.60
38237;DHT22;50101;49.438;11.098;2023-04-12T04:31:59;19.30;51.50
38237;DHT22;50101;49.438;11.098;2023-04-12T04:34:26;19.30;51.60
38237;DHT22;50101;49.438;11.098;2023-04-12T04:36:52;19.30;51.60
38237;DHT22;50101;49.438;11.098;2023-04-12T04:39:19;19.30;51.60
38237;DHT22;50101;49.438;11.098;2023-04-12T04:41:46;19.30;51.60
38237;DHT22;50101;49.438;11.098;2023-04-12T04:44:20;19.30;51.60
38237;DHT22;50101;49.438;11.098;2023-04-12T04:46:47;19.30;51.00
38237;DHT22;50101;49.438;11.098;2023-04-12T04:49:14;19.30;51.60
38237;DHT22;50101;49.438;11.098;2023-04-12T04:51:41;19.30;52.20
38237;DHT22;50101;49.438;11.098;2023-04-12T04:54:07;19.30;51.60
38237;DHT22;50101;49.438;11.098;2023-04-12T04:56:34;19.30;51.60
38237;DHT22;50101;49.438;11.098;2023-04-12T04:59:01;19.30;51.60
38237;DHT22;50101;49.438;11.098;2023-04-12T05:01:28;19.30;51.60
38237;DHT22;50101;49.438;11.098;2023-04-12T05:03:55;19.30;51.50
38237;DHT22;50101;49.438;11.098;2023-04-12T05:06:22;19.40;51.60
38237;DHT22;50101;49.438;11.098;2023-04-12T05:08:48;19.40;51.60
38237;DHT22;50101;49.438;11.098;2023-04-12T05:11:15;19.40;51.50
38237;DHT22;50101;49.438;11.098;2023-04-12T05:13:42;19.40;51.50
38237;DHT22;50101;49.438;11.098;2023-04-12T05:16:09;19.40;51.60
38237;DHT22;50101;49.438;11.098;2023-04-12T05:18:36;19.40;51.50
38237;DHT22;50101;49.438;11.098;2023-04-12T05:21:03;19.40;51.50
38237;DHT22;50101;49.438;11.098;2023-04-12T05:23:41;19.40;51.50
38237;DHT22;50101;49.438;11.098;2023-04-12T05:26:08;19.40;51.50
38237;DHT22;50101;49.438;11.098;2023-04-12T05:28:35;19.40;51.50
38237;DHT22;50101;49.438;11.098;2023-04-12T05:31:01;19.50;51.60
38237;DHT22;50101;49.438;11.098;2023-04-12T05:33:28;19.50;51.60
38237;DHT22;50101;49.438;11.098;2023-04-12T05:35:58;19.50;51.50
38237;DHT22;50101;49.438;11.098;2023-04-12T05:38:25;19.50;51.50
38237;DHT22;50101;49.438;11.098;2023-04-12T05:40:52;19.50;51.50
38237;DHT22;50101;49.438;11.098;2023-04-12T05:43:18;19.50;51.40
38237;DHT22;50101;49.438;11.098;2023-04-12T05:45:45;19.60;51.00
38237;DHT22;50101;49.438;11.098;2023-04-12T05:48:12;19.60;51.50
38237;DHT22;50101;49.438;11.098;2023-04-12T05:50:39;19.60;51.50
38237;DHT22;50101;49.438;11.098;2023-04-12T05:53:06;19.60;51.50
38237;DHT22;50101;49.438;11.098;2023-04-12T05:55:32;19.60;51.60
38237;DHT22;50101;49.438;11.098;2023-04-12T05:58:02;19.60;51.50
38237;DHT22;50101;49.438;11.098;2023-04-12T06:00:28;21.60;53.10
38237;DHT22;50101;49.438;11.098;2023-04-12T06:02:56;19.70;51.30
38237;DHT22;50101;49.438;11.098;2023-04-12T06:05:24;19.70;51.40
38237;DHT22;50101;49.438;11.098;2023-04-12T06:07:51;19.70;51.30
38237;DHT22;50101;49.438;11.098;2023-04-12T06:10:17;19.80;51.40
38237;DHT22;50101;49.438;11.098;2023-04-12T06:12:44;19.70;51.20
38237;DHT22;50101;49.438;11.098;2023-04-12T06:15:11;19.80;51.40
38237;DHT22;50101;49.438;11.098;2023-04-12T06:17:38;19.80;51.40
38237;DHT22;50101;49.438;11.098;2023-04-12T06:20:05;19.90;51.70
38237;DHT22;50101;49.438;11.098;2023-04-12T06:22:35;19.90;51.70
38237;DHT22;50101;49.438;11.098;2023-04-12T06:25:02;19.90;51.80
38237;DHT22;50101;49.438;11.098;2023-04-12T06:27:29;19.90;51.80
38237;DHT22;50101;49.438;11.098;2023-04-12T06:29:56;19.90;51.70
38237;DHT22;50101;49.438;11.098;2023-04-12T06:32:23;19.90;51.90
38237;DHT22;50101;49.438;11.098;2023-04-12T06:34:49;20.00;52.00
38237;DHT22;50101;49.438;11.098;2023-04-12T06:37:16;20.00;52.10
38237;DHT22;50101;49.438;11.098;2023-04-12T06:39:43;20.00;52.00
38237;DHT22;50101;49.438;11.098;2023-04-12T06:42:10;20.00;52.00
38237;DHT22;50101;49.438;11.098;2023-04-12T06:44:39;20.00;52.10
38237;DHT22;50101;49.438;11.098;2023-04-12T06:47:07;20.00;52.00
38237;DHT22;50101;49.438;11.098;2023-04-12T06:49:34;20.00;52.10
38237;DHT22;50101;49.438;11.098;2023-04-12T06:52:00;20.00;52.10
38237;DHT22;50101;49.438;11.098;2023-04-12T06:54:27;20.10;52.10
38237;DHT22;50101;49.438;11.098;2023-04-12T06:56:54;20.10;51.90
38237;DHT22;50101;49.438;11.098;2023-04-12T06:59:22;20.10;51.90
38237;DHT22;50101;49.438;11.098;2023-04-12T07:01:49;20.10;51.80
38237;DHT22;50101;49.438;11.098;2023-04-12T07:04:16;20.10;51.70
38237;DHT22;50101;49.438;11.098;2023-04-12T07:06:43;20.10;51.80
38237;DHT22;50101;49.438;11.098;2023-04-12T07:09:09;20.10;51.80
38237;DHT22;50101;49.438;11.098;2023-04-12T07:11:36;20.20;51.90
38237;DHT22;50101;49.438;11.098;2023-04-12T07:14:03;20.20;51.60
38237;DHT22;50101;49.438;11.098;2023-04-12T07:16:30;20.20;51.60
38237;DHT22;50101;49.438;11.098;2023-04-12T07:18:58;20.20;51.60
38237;DHT22;50101;49.438;11.098;2023-04-12T07:21:26;20.20;51.50
38237;DHT22;50101;49.438;11.098;2023-04-12T07:23:53;20.20;51.40
38237;DHT22;50101;49.438;11.098;2023-04-12T07:26:20;20.20;51.40
38237;DHT22;50101;49.438;11.098;2023-04-12T07:28:47;20.20;51.30
38237;DHT22;50101;49.438;11.098;2023-04-12T07:31:14;20.20;51.30
38237;DHT22;50101;49.438;11.098;2023-04-12T07:33:40;20.20;51.40
38237;DHT22;50101;49.438;11.098;2023-04-12T07:36:09;20.30;50.90
38237;DHT22;50101;49.438;11.098;2023-04-12T07:38:36;20.20;51.70
38237;DHT22;50101;49.438;11.098;2023-04-12T07:41:03;20.20;52.20
38237;DHT22;50101;49.438;11.098;2023-04-12T07:43:30;20.20;52.20
38237;DHT22;50101;49.438;11.098;2023-04-12T07:45:56;20.20;52.30
38237;DHT22;50101;49.438;11.098;2023-04-12T07:48:23;20.30;52.20
38237;DHT22;50101;49.438;11.098;2023-04-12T07:50:51;20.30;52.40
38237;DHT22;50101;49.438;11.098;2023-04-12T07:53:22;20.30;52.50
38237;DHT22;50101;49.438;11.098;2023-04-12T07:55:50;20.30;52.50
38237;DHT22;50101;49.438;11.098;2023-04-12T07:58:17;20.30;52.50
38237;DHT22;50101;49.438;11.098;2023-04-12T08:00:45;20.30;52.50
38237;DHT22;50101;49.438;11.098;2023-04-12T08:03:13;20.30;52.40
38237;DHT22;50101;49.438;11.098;2023-04-12T08:05:41;20.30;52.30
38237;DHT22;50101;49.438;11.098;2023-04-12T08:08:08;20.40;52.30
38237;DHT22;50101;49.438;11.098;2023-04-12T08:10:36;20.40;52.30
38237;DHT22;50101;49.438;11.098;2023-04-12T08:13:04;20.40;52.40
38237;DHT22;50101;49.438;11.098;2023-04-12T08:15:31;20.30;52.40
38237;DHT22;50101;49.438;11.098;2023-04-12T08:17:58;20.30;52.50
38237;DHT22;50101;49.438;11.098;2023-04-12T08:20:26;20.40;52.50
38237;DHT22;50101;49.438;11.098;2023-04-12T08:22:53;20.30;52.50
38237;DHT22;50101;49.438;11.098;2023-04-12T08:25:20;20.40;52.50
38237;DHT22;50101;49.438;11.098;2023-04-12T08:27:48;20.40;52.40
38237;DHT22;50101;49.438;11.098;2023-04-12T08:30:16;20.40;52.50
38237;DHT22;50101;49.438;11.098;2023-04-12T08:32:43;20.40;52.50
38237;DHT22;50101;49.438;11.098;2023-04-12T08:35:10;20.40;52.70
38237;DHT22;50101;49.438;11.098;2023-04-12T08:37:37;20.40;52.70
38237;DHT22;50101;49.438;11.098;2023-04-12T08:40:05;20.40;52.50
38237;DHT22;50101;49.438;11.098;2023-04-12T08:42:34;20.40;52.50
38237;DHT22;50101;49.438;11.098;2023-04-12T08:45:06;20.40;52.60
38237;DHT22;50101;49.438;11.098;2023-04-12T08:47:37;20.40;52.70
38237;DHT22;50101;49.438;11.098;2023-04-12T08:50:08;20.50;52.50
38237;DHT22;50101;49.438;11.098;2023-04-12T08:52:36;20.50;52.50
38237;DHT22;50101;49.438;11.098;2023-04-12T08:55:04;20.50;53.20
38237;DHT22;50101;49.438;11.098;2023-04-12T08:57:31;20.50;52.50
38237;DHT22;50101;49.438;11.098;2023-04-12T09:00:01;20.40;52.50
38237;DHT22;50101;49.438;11.098;2023-04-12T09:02:29;20.40;52.40
38237;DHT22;50101;49.438;11.098;2023-04-12T09:04:56;20.40;52.40
38237;DHT22;50101;49.438;11.098;2023-04-12T09:07:24;20.40;52.60
38237;DHT22;50101;49.438;11.098;2023-04-12T09:09:56;20.40;52.80
38237;DHT22;50101;49.438;11.098;2023-04-12T09:12:23;20.40;52.80
38237;DHT22;50101;49.438;11.098;2023-04-12T09:15:13;20.30;52.90
38237;DHT22;50101;49.438;11.098;2023-04-12T09:17:40;20.30;52.80
38237;DHT22;50101;49.438;11.098;2023-04-12T09:22:44;20.40;52.90
38237;DHT22;50101;49.438;11.098;2023-04-12T09:25:13;20.40;52.80
38237;DHT22;50101;49.438;11.098;2023-04-12T09:27:49;20.50;52.90
38237;DHT22;50101;49.438;11.098;2023-04-12T09:30:18;20.40;52.80
38237;DHT22;50101;49.438;11.098;2023-04-12T09:32:45;20.40;52.90
38237;DHT22;50101;49.438;11.098;2023-04-12T09:35:11;20.40;53.10
38237;DHT22;50101;49.438;11.098;2023-04-12T09:37:38;20.40;52.60
38237;DHT22;50101;49.438;11.098;2023-04-12T09:40:07;20.40;53.00
38237;DHT22;50101;49.438;11.098;2023-04-12T09:42:54;20.40;53.10
38237;DHT22;50101;49.438;11.098;2023-04-12T09:45:23;20.30;53.00
38237;DHT22;50101;49.438;11.098;2023-04-12T09:47:51;20.30;53.10
38237;DHT22;50101;49.438;11.098;2023-04-12T09:50:23;20.30;53.10
38237;DHT22;50101;49.438;11.098;2023-04-12T09:52:51;20.30;53.10
38237;DHT22;50101;49.438;11.098;2023-04-12T09:55:21;20.30;53.10
38237;DHT22;50101;49.438;11.098;2023-04-12T09:57:49;20.30;53.10
38237;DHT22;50101;49.438;11.098;2023-04-12T10:00:17;20.30;53.10
38237;DHT22;50101;49.438;11.098;2023-04-12T10:02:50;20.30;53.10
38237;DHT22;50101;49.438;11.098;2023-04-12T10:05:20;20.30;53.20
38237;DHT22;50101;49.438;11.098;2023-04-12T10:07:48;20.30;53.20
38237;DHT22;50101;49.438;11.098;2023-04-12T10:10:16;20.30;53.20
38237;DHT22;50101;49.438;11.098;2023-04-12T10:12:45;20.30;53.20
38237;DHT22;50101;49.438;11.098;2023-04-12T10:15:13;20.30;53.20
38237;DHT22;50101;49.438;11.098;2023-04-12T10:17:45;20.30;53.10
38237;DHT22;50101;49.438;11.098;2023-04-12T10:20:14;20.30;53.10
38237;DHT22;50101;49.438;11.098;2023-04-12T10:22:44;20.40;53.10
38237;DHT22;50101;49.438;11.098;2023-04-12T10:25:16;20.60;52.80
38237;DHT22;50101;49.438;11.098;2023-04-12T10:27:44;20.70;52.60
38237;DHT22;50101;49.438;11.098;2023-04-12T10:35:51;20.90;52.40
38237;DHT22;50101;49.438;11.098;2023-04-12T10:38:18;20.70;52.60
38237;DHT22;50101;49.438;11.098;2023-04-12T10:43:41;20.50;52.80
38237;DHT22;50101;49.438;11.098;2023-04-12T10:49:12;20.40;52.80
38237;DHT22;50101;49.438;11.098;2023-04-12T10:56:52;20.50;52.70
38237;DHT22;50101;49.438;11.098;2023-04-12T10:59:19;20.70;52.70
38237;DHT22;50101;49.438;11.098;2023-04-12T11:02:08;20.80;52.60
38237;DHT22;50101;49.438;11.098;2023-04-12T11:04:36;20.90;52.40
38237;DHT22;50101;49.438;11.098;2023-04-12T11:07:09;20.90;52.50
38237;DHT22;50101;49.438;11.098;2023-04-12T11:09:43;20.90;52.50
38237;DHT22;50101;49.438;11.098;2023-04-12T11:12:13;20.90;52.60
38237;DHT22;50101;49.438;11.098;2023-04-12T11:14:48;20.90;52.60
38237;DHT22;50101;49.438;11.098;2023-04-12T11:19:52;20.90;52.80
38237;DHT22;50101;49.438;11.098;2023-04-12T11:22:21;20.90;52.80
38237;DHT22;50101;49.438;11.098;2023-04-12T11:24:50;20.90;52.70
38237;DHT22;50101;49.438;11.098;2023-04-12T11:27:19;21.00;52.20
38237;DHT22;50101;49.438;11.098;2023-04-12T11:29:54;21.00;53.40
38237;DHT22;50101;49.438;11.098;2023-04-12T11:32:27;20.90;52.40
38237;DHT22;50101;49.438;11.098;2023-04-12T11:34:55;20.80;52.90
38237;DHT22;50101;49.438;11.098;2023-04-12T11:37:23;20.60;52.90
38237;DHT22;50101;49.438;11.098;2023-04-12T11:39:51;20.50;52.80
38237;DHT22;50101;49.438;11.098;2023-04-12T11:42:20;20.50;52.90
38237;DHT22;50101;49.438;11.098;2023-04-12T11:44:49;20.40;52.80
38237;DHT22;50101;49.438;11.098;2023-04-12T11:47:25;20.40;53.00
38237;DHT22;50101;49.438;11.098;2023-04-12T11:49:54;20.40;52.90
38237;DHT22;50101;49.438;11.098;2023-04-12T11:52:28;20.40;52.90
38237;DHT22;50101;49.438;11.098;2023-04-12T11:54:57;20.40;53.00
38237;DHT22;50101;49.438;11.098;2023-04-12T11:57:24;20.40;53.00
38237;DHT22;50101;49.438;11.098;2023-04-12T11:59:51;20.40;53.00
38237;DHT22;50101;49.438;11.098;2023-04-12T12:02:19;20.40;53.00
38237;DHT22;50101;49.438;11.098;2023-04-12T12:04:50;20.40;53.00
38237;DHT22;50101;49.438;11.098;2023-04-12T12:07:18;20.40;52.60
38237;DHT22;50101;49.438;11.098;2023-04-12T12:09:48;20.40;52.90
38237;DHT22;50101;49.438;11.098;2023-04-12T12:12:15;20.40;53.00
38237;DHT22;50101;49.438;11.098;2023-04-12T12:14:44;20.40;52.80
38237;DHT22;50101;49.438;11.098;2023-04-12T12:17:14;20.40;52.90
38237;DHT22;50101;49.438;11.098;2023-04-12T12:19:43;20.40;52.90
38237;DHT22;50101;49.438;11.098;2023-04-12T12:22:17;20.40;52.80
38237;DHT22;50101;49.438;11.098;2023-04-12T12:24:58;20.40;52.90
38237;DHT22;50101;49.438;11.098;2023-04-12T12:27:37;20.40;52.40
38237;DHT22;50101;49.438;11.098;2023-04-12T12:30:06;20.40;52.90
38237;DHT22;50101;49.438;11.098;2023-04-12T12:32:34;20.40;52.90
38237;DHT22;50101;49.438;11.098;2023-04-12T12:35:01;20.40;52.90
38237;DHT22;50101;49.438;11.098;2023-04-12T12:37:29;20.50;53.00
38237;DHT22;50101;49.438;11.098;2023-04-12T12:42:36;20.40;53.00
38237;DHT22;50101;49.438;11.098;2023-04-12T12:45:09;20.40;53.10
38237;DHT22;50101;49.438;11.098;2023-04-12T12:50:31;20.40;53.20
38237;DHT22;50101;49.438;11.098;2023-04-12T12:52:59;20.40;53.10
38237;DHT22;50101;49.438;11.098;2023-04-12T12:55:27;20.50;53.20
38237;DHT22;50101;49.438;11.098;2023-04-12T12:57:55;20.40;53.10
38237;DHT22;50101;49.438;11.098;2023-04-12T13:00:34;20.40;53.20
38237;DHT22;50101;49.438;11.098;2023-04-12T13:03:00;20.40;53.10
38237;DHT22;50101;49.438;11.098;2023-04-12T13:05:28;20.40;53.10
38237;DHT22;50101;49.438;11.098;2023-04-12T13:07:55;20.40;53.10
38237;DHT22;50101;49.438;11.098;2023-04-12T13:10:22;20.40;52.90
38237;DHT22;50101;49.438;11.098;2023-04-12T13:12:49;20.40;52.90
38237;DHT22;50101;49.438;11.098;2023-04-12T13:15:16;20.40;52.80
38237;DHT22;50101;49.438;11.098;2023-04-12T13:17:52;20.40;52.80
38237;DHT22;50101;49.438;11.098;2023-04-12T13:20:20;20.30;52.80
38237;DHT22;50101;49.438;11.098;2023-04-12T13:22:48;20.30;52.90
38237;DHT22;50101;49.438;11.098;2023-04-12T13:25:14;20.40;52.70
38237;DHT22;50101;49.438;11.098;2023-04-12T13:27:41;20.30;52.80
38237;DHT22;50101;49.438;11.098;2023-04-12T13:30:08;20.40;52.70
38237;DHT22;50101;49.438;11.098;2023-04-12T13:32:35;20.30;52.70
38237;DHT22;50101;49.438;11.098;2023-04-12T13:35:02;20.30;53.00
38237;DHT22;50101;49.438;11.098;2023-04-12T13:37:29;20.30;53.20
38237;DHT22;50101;49.438;11.098;2023-04-12T13:39:56;20.20;53.20
38237;DHT22;50101;49.438;11.098;2023-04-12T13:42:23;20.30;53.30
38237;DHT22;50101;49.438;11.098;2023-04-12T13:44:49;20.30;53.20
38237;DHT22;50101;49.438;11.098;2023-04-12T13:47:16;20.30;53.20
38237;DHT22;50101;49.438;11.098;2023-04-12T13:49:43;20.30;53.30
38237;DHT22;50101;49.438;11.098;2023-04-12T13:52:11;20.40;53.20
38237;DHT22;50101;49.438;11.098;2023-04-12T13:54:37;20.30;53.20
38237;DHT22;50101;49.438;11.098;2023-04-12T13:57:04;20.40;53.60
38237;DHT22;50101;49.438;11.098;2023-04-12T13:59:31;20.50;53.40
38237;DHT22;50101;49.438;11.098;2023-04-12T14:01:58;20.40;53.20
38237;DHT22;50101;49.438;11.098;2023-04-12T14:04:30;20.40;53.40
38237;DHT22;50101;49.438;11.098;2023-04-12T14:06:59;20.40;53.40
38237;DHT22;50101;49.438;11.098;2023-04-12T14:09:28;20.60;53.20
38237;DHT22;50101;49.438;11.098;2023-04-12T14:11:56;20.60;53.60
38237;DHT22;50101;49.438;11.098;2023-04-12T14:14:24;20.70;52.80
38237;DHT22;50101;49.438;11.098;2023-04-12T14:16:52;20.80;52.40
38237;DHT22;50101;49.438;11.098;2023-04-12T14:19:23;20.90;53.00
38237;DHT22;50101;49.438;11.098;2023-04-12T14:21:50;20.90;52.90
38237;DHT22;50101;49.438;11.098;2023-04-12T14:24:17;20.90;53.00
38237;DHT22;50101;49.438;11.098;2023-04-12T14:26:44;20.90;52.60
38237;DHT22;50101;49.438;11.098;2023-04-12T14:29:11;20.90;53.20
38237;DHT22;50101;49.438;11.098;2023-04-12T14:31:39;20.90;53.20
38237;DHT22;50101;49.438;11.098;2023-04-12T14:34:06;20.90;53.20
38237;DHT22;50101;49.438;11.098;2023-04-12T14:36:34;21.00;53.30
38237;DHT22;50101;49.438;11.098;2023-04-12T14:39:01;21.00;53.30
38237;DHT22;50101;49.438;11.098;2023-04-12T14:41:30;20.90;53.50
38237;DHT22;50101;49.438;11.098;2023-04-12T14:44:00;20.80;53.60
38237;DHT22;50101;49.438;11.098;2023-04-12T14:46:27;20.90;52.80
38237;DHT22;50101;49.438;11.098;2023-04-12T14:48:54;20.90;53.30
38237;DHT22;50101;49.438;11.098;2023-04-12T14:51:22;20.80;53.50
38237;DHT22;50101;49.438;11.098;2023-04-12T14:53:49;20.70;53.70
38237;DHT22;50101;49.438;11.098;2023-04-12T14:56:20;20.70;53.80
38237;DHT22;50101;49.438;11.098;2023-04-12T14:58:54;20.70;53.90
38237;DHT22;50101;49.438;11.098;2023-04-12T15:01:22;20.70;54.10
38237;DHT22;50101;49.438;11.098;2023-04-12T15:03:50;20.60;54.10
38237;DHT22;50101;49.438;11.098;2023-04-12T15:06:18;20.70;54.20
38237;DHT22;50101;49.438;11.098;2023-04-12T15:08:46;20.70;54.20
38237;DHT22;50101;49.438;11.098;2023-04-12T15:11:15;20.70;54.70
38237;DHT22;50101;49.438;11.098;2023-04-12T15:13:44;20.70;54.10
38237;DHT22;50101;49.438;11.098;2023-04-12T15:16:11;20.70;54.20
38237;DHT22;50101;49.438;11.098;2023-04-12T15:18:38;20.60;54.10
38237;DHT22;50101;49.438;11.098;2023-04-12T15:21:08;20.50;54.10
38237;DHT22;50101;49.438;11.098;2023-04-12T15:23:36;20.50;54.10
38237;DHT22;50101;49.438;11.098;2023-04-12T15:26:04;20.50;53.50
38237;DHT22;50101;49.438;11.098;2023-04-12T15:28:37;20.50;54.00
38237;DHT22;50101;49.438;11.098;2023-04-12T15:31:04;20.50;54.00
38237;DHT22;50101;49.438;11.098;2023-04-12T15:33:31;20.40;53.90
38237;DHT22;50101;49.438;11.098;2023-04-12T15:36:04;20.50;54.00
38237;DHT22;50101;49.438;11.098;2023-04-12T15:38:30;20.40;53.90
38237;DHT22;50101;49.438;11.098;2023-04-12T15:40:59;20.50;54.00
38237;DHT22;50101;49.438;11.098;2023-04-12T15:43:27;20.40;54.10
38237;DHT22;50101;49.438;11.098;2023-04-12T15:45:53;20.40;54.00
38237;DHT22;50101;49.438;11.098;2023-04-12T15:48:21;20.40;54.30
38237;DHT22;50101;49.438;11.098;2023-04-12T15:50:49;20.40;54.50
38237;DHT22;50101;49.438;11.098;2023-04-12T15:53:18;20.40;54.40
38237;DHT22;50101;49.438;11.098;2023-04-12T15:55:46;20.40;54.10